Portada
METAR-TAF:

METAR-TAF

Aeropuertos :

Aeropuerto de Pau-Pirineos

Pau, Francia

latitud: 43-23N, longitud: 000-25W, altitud: 188 m

Observación

El informe se hizo hace 44 minutos, a las 08:30 UTC
Viento 4 kt del este-noreste, variando entre norte-noreste y este-sureste
Temperatura 21°C
Humedad 78%
Presión 1018 hPa
Visibilidad 10 km o más
Nubes dispersas a una altura de 1700 ft
Cielo cubierto a una altura de 3300 ft

METAR: LFBP 140830Z AUTO 07004KT 020V110 9999 SCT017 OVC033 21/17 Q1018 NOSIG

Hora: 11:14 (09:14 UTC)

Pronóstico

El informe se hizo hace 4 horas y 14 minutos, a las 05:00 UTC
Pronóstico válido del 14 a las 06 UTC al 15 a las 06 UTC
Viento 2 kt con dirección variable
Visibilidad 10 km o más
Cielo nuboso a una altura de 3000 ft
A partir de las 14 a las 1200 UTC
Viento 6 kt del este
Visibilidad 10 km o más
sin nubes por debajo de 1500 m y sin presencia de cumulonimbus.

TAF: LFBP 140500Z 1406/1506 VRB02KT 9999 BKN030 FM141200 08006KT CAVOK

Observaciones y pronósticos meteorológicos de más de 4000 aeropuertos (mensajes METAR y TAF).

Los puntos amarillos y rojos representan las estaciones disponibles.

Ponga el ratón en el punto deseado para ver el nombre de la estación.

Haga clic para ver las observaciones y los pronósticos meteorológicos.

Para cambiar el mapa : haga clic en los botones verdes con una cruz de color negro para hacer un zoom, en el botón verde con un guión para alejar o en las flechas verdes para mapas adyacentes.


METAR-TAF: